Time;durP1;ratioP1;P1;durP2;ratioP2;P2;SDS_P1;SDS_P2;PMS_P1;PMS_P2;Temp;Humidity;BMP_temperature;BMP_pressure;BME280_temperature;BME280_humidity;BME280_pressure;Samples;Min_cycle;Max_cycle;Signal;HPM_P1;HPM_P2
2023/01/05 00:01:46;;;;;;;1.50;1.40;;;;;;;;;;5051616;28;20491;-84
2023/01/05 00:04:12;;;;;;;1.80;1.60;;;;;;;;;;5051814;28;20382;-85
2023/01/05 00:06:38;;;;;;;1.70;1.60;;;;;;;;;;5050125;28;20389;-84
2023/01/05 00:09:05;;;;;;;1.50;1.40;;;;;;;;;;5034341;28;20413;-84
2023/01/05 00:22:43;;;;;;;1.37;1.10;;;;;;;;;;5051675;28;20893;-85
2023/01/05 00:25:19;;;;;;;1.42;1.00;;;;;;;;;;5051661;28;20378;-84
2023/01/05 00:27:50;;;;;;;1.15;1.00;;;;;;;;;;5033688;28;20736;-84
2023/01/05 00:30:18;;;;;;;0.82;0.82;;;;;;;;;;5050341;28;20910;-84
2023/01/05 00:32:44;;;;;;;1.17;0.90;;;;;;;;;;5051018;28;20391;-83
2023/01/05 00:35:10;;;;;;;0.80;0.80;;;;;;;;;;5051197;28;20816;-84
2023/01/05 00:37:37;;;;;;;0.90;0.80;;;;;;;;;;5051176;28;20369;-83
2023/01/05 00:40:04;;;;;;;1.00;0.80;;;;;;;;;;5050375;28;20728;-85
2023/01/05 00:42:30;;;;;;;1.02;0.68;;;;;;;;;;5051365;28;20425;-84
2023/01/05 00:44:56;;;;;;;0.65;0.65;;;;;;;;;;5051432;28;20420;-84
2023/01/05 00:47:22;;;;;;;1.90;0.90;;;;;;;;;;5051491;28;20411;-83
2023/01/05 00:49:48;;;;;;;1.10;0.88;;;;;;;;;;5051124;28;20413;-83
2023/01/05 00:52:14;;;;;;;1.70;0.70;;;;;;;;;;5051411;28;20381;-83
2023/01/05 00:54:40;;;;;;;1.23;0.70;;;;;;;;;;5049453;28;20468;-84
2023/01/05 00:57:06;;;;;;;1.17;1.05;;;;;;;;;;5035828;28;20434;-83
2023/01/05 00:59:32;;;;;;;1.00;0.90;;;;;;;;;;5049677;28;20747;-81
2023/01/05 01:01:58;;;;;;;0.75;0.75;;;;;;;;;;5050057;28;20405;-82
2023/01/05 01:04:25;;;;;;;0.82;0.63;;;;;;;;;;5049369;28;20474;-83
2023/01/05 01:06:51;;;;;;;1.60;0.70;;;;;;;;;;5032594;28;20400;-84
2023/01/05 01:09:17;;;;;;;1.30;0.90;;;;;;;;;;5044950;28;20415;-83
2023/01/05 01:11:43;;;;;;;0.50;0.50;;;;;;;;;;5030528;28;20378;-82
2023/01/05 01:14:10;;;;;;;0.80;0.80;;;;;;;;;;5035246;28;20402;-82
2023/01/05 01:16:36;;;;;;;1.00;0.80;;;;;;;;;;5031217;28;20382;-83
2023/01/05 01:19:02;;;;;;;0.80;0.70;;;;;;;;;;5031219;28;20383;-83
2023/01/05 01:21:28;;;;;;;1.40;0.93;;;;;;;;;;5015724;28;20389;-83
2023/01/05 01:23:54;;;;;;;1.10;0.70;;;;;;;;;;5018554;28;20896;-83
2023/01/05 01:26:20;;;;;;;0.75;0.60;;;;;;;;;;5038338;28;20388;-84
2023/01/05 01:28:47;;;;;;;1.00;0.60;;;;;;;;;;5035395;28;20521;-82
2023/01/05 01:31:13;;;;;;;0.50;0.50;;;;;;;;;;5036647;28;20394;-83
2023/01/05 01:33:39;;;;;;;1.30;0.70;;;;;;;;;;5037618;28;20377;-84
2023/01/05 01:36:06;;;;;;;0.90;0.68;;;;;;;;;;5043274;28;20417;-83
2023/01/05 01:38:33;;;;;;;0.57;0.57;;;;;;;;;;5047771;28;20847;-83
2023/01/05 01:40:59;;;;;;;0.70;0.70;;;;;;;;;;5038018;28;20390;-83
2023/01/05 01:43:48;;;;;;;0.50;0.50;;;;;;;;;;5038130;28;20931;-83
2023/01/05 01:46:15;;;;;;;0.70;0.70;;;;;;;;;;5017377;28;20469;-83
2023/01/05 01:48:46;;;;;;;1.08;0.85;;;;;;;;;;5034497;28;20856;-84
2023/01/05 01:51:19;;;;;;;1.25;0.80;;;;;;;;;;5033371;28;20403;-85
2023/01/05 01:53:47;;;;;;;1.20;1.10;;;;;;;;;;5039291;28;20883;-83
2023/01/05 01:56:15;;;;;;;1.00;0.90;;;;;;;;;;5033468;28;20386;-84
2023/01/05 01:58:41;;;;;;;1.10;1.00;;;;;;;;;;5033440;28;20419;-83
2023/01/05 02:01:07;;;;;;;1.10;0.85;;;;;;;;;;5020418;28;20848;-83
2023/01/05 02:03:33;;;;;;;0.93;0.70;;;;;;;;;;5037038;28;20406;-84
2023/01/05 02:06:00;;;;;;;0.75;0.75;;;;;;;;;;5034856;28;20469;-84
2023/01/05 02:08:32;;;;;;;1.02;0.90;;;;;;;;;;5036595;28;20387;-84
2023/01/05 02:11:16;;;;;;;1.77;0.85;;;;;;;;;;5038239;28;20395;-84
2023/01/05 02:13:59;;;;;;;0.80;0.80;;;;;;;;;;5037908;28;20393;-85
2023/01/05 02:16:33;;;;;;;1.20;1.10;;;;;;;;;;5049460;28;20428;-82
2023/01/05 02:19:06;;;;;;;1.00;1.00;;;;;;;;;;5052155;28;20886;-83
2023/01/05 02:21:38;;;;;;;1.00;0.90;;;;;;;;;;5049897;28;20396;-84
2023/01/05 02:24:17;;;;;;;1.27;1.17;;;;;;;;;;5034102;28;20400;-83
2023/01/05 02:26:46;;;;;;;1.03;0.97;;;;;;;;;;5052059;28;20856;-82
2023/01/05 02:29:31;;;;;;;1.48;1.20;;;;;;;;;;5053175;28;20886;-82
2023/01/05 02:32:06;;;;;;;1.35;1.25;;;;;;;;;;5053359;28;20451;-82
2023/01/05 02:34:41;;;;;;;1.33;1.23;;;;;;;;;;5051997;28;20389;-82
2023/01/05 02:37:39;;;;;;;1.53;1.43;;;;;;;;;;5053201;28;20440;-84
2023/01/05 02:40:09;;;;;;;1.52;1.42;;;;;;;;;;4982110;28;20392;-82
2023/01/05 02:42:36;;;;;;;1.80;1.60;;;;;;;;;;5051983;28;20382;-82
2023/01/05 02:45:03;;;;;;;1.50;1.40;;;;;;;;;;5053246;28;20424;-82
2023/01/05 02:47:29;;;;;;;1.50;1.40;;;;;;;;;;5053348;28;20381;-82
2023/01/05 02:50:00;;;;;;;1.50;1.40;;;;;;;;;;5053068;28;20634;-83
2023/01/05 02:52:27;;;;;;;1.80;1.50;;;;;;;;;;5053248;28;20374;-83
2023/01/05 02:54:57;;;;;;;1.70;1.58;;;;;;;;;;5053102;28;20382;-82
2023/01/05 02:57:49;;;;;;;1.70;1.60;;;;;;;;;;5046776;28;20771;-82
2023/01/05 03:00:34;;;;;;;1.70;1.60;;;;;;;;;;5039271;28;20504;-82
2023/01/05 03:03:18;;;;;;;1.70;1.60;;;;;;;;;;5051426;28;20381;-83
2023/01/05 03:05:50;;;;;;;2.00;1.60;;;;;;;;;;5051688;28;20444;-82
2023/01/05 03:08:23;;;;;;;1.60;1.50;;;;;;;;;;5052901;28;20382;-82
2023/01/05 03:13:47;;;;;;;1.70;1.60;;;;;;;;;;5053071;28;20369;-82
2023/01/05 03:16:17;;;;;;;1.90;1.80;;;;;;;;;;5052709;28;20385;-83
2023/01/05 03:21:29;;;;;;;2.03;1.83;;;;;;;;;;5052986;28;20403;-82
2023/01/05 03:37:51;;;;;;;2.30;2.10;;;;;;;;;;5052392;28;20376;-83
2023/01/05 03:40:31;;;;;;;2.15;1.90;;;;;;;;;;5050777;28;20464;-83
2023/01/05 03:42:58;;;;;;;2.05;1.85;;;;;;;;;;5048501;28;20406;-83
2023/01/05 03:45:25;;;;;;;2.33;1.85;;;;;;;;;;5033935;28;20905;-83
2023/01/05 03:47:51;;;;;;;1.67;1.50;;;;;;;;;;5051766;28;20397;-83
2023/01/05 03:50:17;;;;;;;1.95;1.75;;;;;;;;;;5051477;28;20405;-83
2023/01/05 03:52:43;;;;;;;1.50;1.40;;;;;;;;;;5052185;28;20374;-83
2023/01/05 03:55:09;;;;;;;1.60;1.47;;;;;;;;;;5051919;28;20434;-83
2023/01/05 03:57:35;;;;;;;2.08;1.52;;;;;;;;;;5052085;28;20912;-82
2023/01/05 04:00:02;;;;;;;1.60;1.50;;;;;;;;;;5051988;28;20480;-83
2023/01/05 04:02:28;;;;;;;1.98;1.63;;;;;;;;;;5052033;28;20393;-83
2023/01/05 04:04:54;;;;;;;1.60;1.50;;;;;;;;;;5051867;28;20774;-83
2023/01/05 04:07:20;;;;;;;1.70;1.60;;;;;;;;;;5040585;28;20389;-83
2023/01/05 04:09:45;;;;;;;1.60;1.50;;;;;;;;;;5051724;28;20499;-83
2023/01/05 04:12:11;;;;;;;1.65;1.52;;;;;;;;;;5034179;28;20739;-82
2023/01/05 04:14:37;;;;;;;1.70;1.40;;;;;;;;;;5051716;28;20417;-83
2023/01/05 04:17:03;;;;;;;1.50;1.40;;;;;;;;;;5046164;28;20383;-83
2023/01/05 04:19:29;;;;;;;1.30;1.20;;;;;;;;;;5049397;28;20394;-83
2023/01/05 04:21:55;;;;;;;1.52;1.42;;;;;;;;;;5051671;28;20417;-83
2023/01/05 04:24:21;;;;;;;1.13;1.08;;;;;;;;;;5051528;28;20417;-83
2023/01/05 04:26:47;;;;;;;1.20;1.10;;;;;;;;;;5051685;28;20396;-83
2023/01/05 04:29:13;;;;;;;1.25;1.15;;;;;;;;;;5051444;28;20411;-83
2023/01/05 04:31:39;;;;;;;1.80;1.20;;;;;;;;;;5051430;28;20436;-83
2023/01/05 04:34:05;;;;;;;1.80;1.40;;;;;;;;;;5051638;28;20369;-82
2023/01/05 04:36:31;;;;;;;1.10;1.00;;;;;;;;;;5051367;28;20413;-83
2023/01/05 04:38:57;;;;;;;1.17;1.08;;;;;;;;;;5051532;28;20381;-83
2023/01/05 04:41:23;;;;;;;1.58;1.00;;;;;;;;;;5051433;28;20796;-82
2023/01/05 04:43:49;;;;;;;1.30;1.00;;;;;;;;;;5051442;28;20430;-83
2023/01/05 04:46:15;;;;;;;1.20;1.00;;;;;;;;;;5050253;28;20459;-83
2023/01/05 04:48:41;;;;;;;1.00;1.00;;;;;;;;;;5050804;28;20397;-83
2023/01/05 04:51:07;;;;;;;1.27;1.10;;;;;;;;;;5049776;28;20375;-84
2023/01/05 04:53:33;;;;;;;0.80;0.80;;;;;;;;;;5041013;28;21027;-85
2023/01/05 04:56:05;;;;;;;0.80;0.80;;;;;;;;;;5037674;28;20462;-85
2023/01/05 04:58:31;;;;;;;0.80;0.70;;;;;;;;;;5044646;28;20455;-84
2023/01/05 05:00:57;;;;;;;1.35;1.00;;;;;;;;;;5053142;28;20810;-84
2023/01/05 05:03:23;;;;;;;1.42;0.98;;;;;;;;;;5040404;28;20462;-85
2023/01/05 05:05:49;;;;;;;0.60;0.60;;;;;;;;;;5050539;28;20476;-83
2023/01/05 05:08:15;;;;;;;0.80;0.70;;;;;;;;;;5053607;28;20385;-84
2023/01/05 05:10:41;;;;;;;0.77;0.60;;;;;;;;;;5051098;28;20821;-82
2023/01/05 05:13:07;;;;;;;0.47;0.47;;;;;;;;;;5051153;28;20385;-83
2023/01/05 05:15:33;;;;;;;0.50;0.40;;;;;;;;;;5050468;28;20388;-83
2023/01/05 05:17:59;;;;;;;0.50;0.40;;;;;;;;;;5053281;28;20397;-85
2023/01/05 05:20:25;;;;;;;0.55;0.55;;;;;;;;;;5053043;28;20415;-85
2023/01/05 05:22:51;;;;;;;0.70;0.70;;;;;;;;;;5053083;28;20381;-85
2023/01/05 05:25:17;;;;;;;1.15;0.88;;;;;;;;;;5052602;28;20640;-84
2023/01/05 05:27:43;;;;;;;1.40;0.82;;;;;;;;;;5047300;28;21928;-84
2023/01/05 05:30:09;;;;;;;0.73;0.73;;;;;;;;;;5051971;28;20409;-85
2023/01/05 05:32:35;;;;;;;0.85;0.80;;;;;;;;;;5051323;28;20460;-84
2023/01/05 05:35:01;;;;;;;0.77;0.60;;;;;;;;;;5053239;28;20460;-83
2023/01/05 05:37:27;;;;;;;0.70;0.70;;;;;;;;;;5053022;28;20381;-84
2023/01/05 05:39:53;;;;;;;0.50;0.50;;;;;;;;;;5054180;28;20436;-84
2023/01/05 05:42:19;;;;;;;0.30;0.30;;;;;;;;;;5018746;28;20474;-85
2023/01/05 05:44:45;;;;;;;0.40;0.40;;;;;;;;;;5034863;28;20386;-84
2023/01/05 05:47:11;;;;;;;0.30;0.30;;;;;;;;;;5032254;28;20384;-84
2023/01/05 05:49:37;;;;;;;0.40;0.40;;;;;;;;;;5051929;28;20405;-85
2023/01/05 05:52:03;;;;;;;0.47;0.45;;;;;;;;;;5031542;28;20893;-85
2023/01/05 05:54:29;;;;;;;0.40;0.40;;;;;;;;;;5049862;28;20380;-84
2023/01/05 05:56:55;;;;;;;0.50;0.30;;;;;;;;;;5050056;28;20376;-84
2023/01/05 05:59:21;;;;;;;0.63;0.50;;;;;;;;;;5053122;28;20472;-83
2023/01/05 06:01:47;;;;;;;0.50;0.40;;;;;;;;;;5052442;28;20409;-84
2023/01/05 06:04:13;;;;;;;0.30;0.30;;;;;;;;;;5052889;28;20447;-84
2023/01/05 06:06:39;;;;;;;0.40;0.40;;;;;;;;;;5046056;28;20887;-84
2023/01/05 06:09:05;;;;;;;0.40;0.40;;;;;;;;;;5034445;28;20449;-85
2023/01/05 06:11:31;;;;;;;0.70;0.70;;;;;;;;;;5045364;28;20887;-83
2023/01/05 06:13:57;;;;;;;1.00;0.80;;;;;;;;;;5039943;28;20483;-83
2023/01/05 06:16:23;;;;;;;0.70;0.60;;;;;;;;;;5033055;28;20407;-83
2023/01/05 06:18:49;;;;;;;0.65;0.65;;;;;;;;;;5036247;28;20410;-83
2023/01/05 06:21:15;;;;;;;0.82;0.70;;;;;;;;;;5033843;28;20770;-83
2023/01/05 06:23:41;;;;;;;0.70;0.50;;;;;;;;;;5050051;28;20420;-84
2023/01/05 06:26:07;;;;;;;0.63;0.50;;;;;;;;;;5051990;28;20409;-84
2023/01/05 06:28:33;;;;;;;0.50;0.50;;;;;;;;;;5040280;28;20856;-84
2023/01/05 06:30:59;;;;;;;0.50;0.50;;;;;;;;;;5034462;28;20407;-84
2023/01/05 06:33:25;;;;;;;0.95;0.50;;;;;;;;;;5046640;28;20909;-84
2023/01/05 06:35:51;;;;;;;0.60;0.60;;;;;;;;;;5052824;28;20416;-85
2023/01/05 06:38:17;;;;;;;0.77;0.60;;;;;;;;;;5052421;28;20879;-86
2023/01/05 06:40:45;;;;;;;0.80;0.60;;;;;;;;;;5052218;28;20831;-85
2023/01/05 06:43:12;;;;;;;1.00;0.80;;;;;;;;;;5052800;28;20423;-84
2023/01/05 06:45:38;;;;;;;0.60;0.60;;;;;;;;;;5044714;28;21112;-84
2023/01/05 06:48:04;;;;;;;0.85;0.85;;;;;;;;;;5053359;28;20412;-84
2023/01/05 06:50:30;;;;;;;0.80;0.80;;;;;;;;;;5052728;28;20405;-83
2023/01/05 06:52:57;;;;;;;0.70;0.70;;;;;;;;;;5052237;28;20958;-84
2023/01/05 06:55:23;;;;;;;0.60;0.60;;;;;;;;;;5052924;28;20380;-83
2023/01/05 06:57:49;;;;;;;0.82;0.77;;;;;;;;;;5050867;28;20464;-83
2023/01/05 07:00:15;;;;;;;0.63;0.63;;;;;;;;;;5052873;28;20563;-84
2023/01/05 07:02:41;;;;;;;1.30;0.80;;;;;;;;;;5053044;28;20770;-84
2023/01/05 07:05:07;;;;;;;0.80;0.70;;;;;;;;;;5052934;28;20381;-84
2023/01/05 07:07:33;;;;;;;0.70;0.70;;;;;;;;;;5052778;28;20389;-84
2023/01/05 07:09:59;;;;;;;0.60;0.60;;;;;;;;;;5052745;28;20420;-84
2023/01/05 07:12:26;;;;;;;0.70;0.70;;;;;;;;;;5035073;28;20863;-84
2023/01/05 07:14:51;;;;;;;0.60;0.60;;;;;;;;;;5051825;28;20738;-84
2023/01/05 07:17:17;;;;;;;0.60;0.60;;;;;;;;;;5041686;28;20389;-85
2023/01/05 07:19:43;;;;;;;1.63;0.80;;;;;;;;;;5037401;28;20437;-86
2023/01/05 07:22:09;;;;;;;0.68;0.68;;;;;;;;;;5050539;28;20858;-85
2023/01/05 07:24:35;;;;;;;1.30;1.00;;;;;;;;;;5052575;28;20382;-87
2023/01/05 07:27:02;;;;;;;2.27;1.13;;;;;;;;;;5052471;28;20388;-86
2023/01/05 07:29:28;;;;;;;1.10;1.00;;;;;;;;;;5030033;28;20440;-86
2023/01/05 07:31:54;;;;;;;1.20;1.02;;;;;;;;;;5052445;28;20420;-85
2023/01/05 07:34:21;;;;;;;0.90;0.82;;;;;;;;;;5051981;28;20413;-86
2023/01/05 07:36:47;;;;;;;0.82;0.82;;;;;;;;;;5047573;28;20409;-85
2023/01/05 07:39:13;;;;;;;1.73;1.20;;;;;;;;;;5049821;28;20813;-85
2023/01/05 07:41:39;;;;;;;1.00;1.00;;;;;;;;;;5052165;28;20424;-85
2023/01/05 07:44:06;;;;;;;0.98;0.85;;;;;;;;;;5052160;28;20377;-87
2023/01/05 07:46:32;;;;;;;1.20;1.10;;;;;;;;;;5045271;28;20389;-86
2023/01/05 07:48:58;;;;;;;1.13;1.02;;;;;;;;;;5052019;28;20542;-84
2023/01/05 07:51:24;;;;;;;1.00;0.90;;;;;;;;;;5052113;28;20377;-86
2023/01/05 07:53:50;;;;;;;1.25;0.80;;;;;;;;;;5060344;28;20861;-84
2023/01/05 07:56:16;;;;;;;0.85;0.85;;;;;;;;;;5061591;28;20381;-84
2023/01/05 07:58:42;;;;;;;0.80;0.80;;;;;;;;;;5051647;28;20402;-85
2023/01/05 08:01:12;;;;;;;1.50;1.00;;;;;;;;;;5051213;28;20890;-84
2023/01/05 08:03:38;;;;;;;0.90;0.90;;;;;;;;;;5051554;28;20392;-83
2023/01/05 08:06:09;;;;;;;1.10;1.00;;;;;;;;;;5051832;28;20385;-86
2023/01/05 08:08:35;;;;;;;1.10;1.00;;;;;;;;;;5051778;28;20377;-85
2023/01/05 08:11:05;;;;;;;0.70;0.70;;;;;;;;;;5051785;28;20504;-85
2023/01/05 08:16:15;;;;;;;0.90;0.90;;;;;;;;;;5051821;28;20727;-84
2023/01/05 08:18:41;;;;;;;1.00;0.90;;;;;;;;;;5048749;28;20384;-84
2023/01/05 08:21:08;;;;;;;1.10;1.00;;;;;;;;;;5039914;28;20393;-84
2023/01/05 08:23:35;;;;;;;1.20;1.10;;;;;;;;;;5045843;28;20716;-84
2023/01/05 08:26:09;;;;;;;1.30;1.13;;;;;;;;;;5042026;28;20472;-84
2023/01/05 08:28:35;;;;;;;1.17;1.17;;;;;;;;;;5051123;28;20523;-84
2023/01/05 08:31:02;;;;;;;1.30;1.20;;;;;;;;;;5032608;28;20505;-84
2023/01/05 08:33:28;;;;;;;1.48;1.38;;;;;;;;;;5033882;28;20869;-84
2023/01/05 08:35:54;;;;;;;1.35;1.20;;;;;;;;;;5051096;28;20389;-85
2023/01/05 08:38:21;;;;;;;1.05;1.02;;;;;;;;;;5050870;28;20469;-86
2023/01/05 08:40:47;;;;;;;1.30;1.20;;;;;;;;;;5050231;28;20385;-86
2023/01/05 08:43:13;;;;;;;1.40;1.30;;;;;;;;;;5049403;28;20381;-85
2023/01/05 08:45:39;;;;;;;1.80;1.58;;;;;;;;;;5050537;28;20867;-86
2023/01/05 08:48:05;;;;;;;1.52;1.42;;;;;;;;;;5051552;28;20377;-87
2023/01/05 08:50:31;;;;;;;1.63;1.52;;;;;;;;;;5051296;28;20413;-84
2023/01/05 08:52:57;;;;;;;1.63;1.48;;;;;;;;;;5051338;28;20435;-86
2023/01/05 08:55:23;;;;;;;1.60;1.50;;;;;;;;;;5051395;28;20385;-87
2023/01/05 08:57:49;;;;;;;2.63;1.70;;;;;;;;;;5050976;28;20396;-86
2023/01/05 09:00:16;;;;;;;1.80;1.70;;;;;;;;;;5033263;28;20894;-83
2023/01/05 09:02:43;;;;;;;1.90;1.57;;;;;;;;;;5051318;28;20800;-85
2023/01/05 09:05:09;;;;;;;1.70;1.60;;;;;;;;;;5050134;28;20735;-83
2023/01/05 09:07:36;;;;;;;1.70;1.60;;;;;;;;;;5040675;28;20465;-84
2023/01/05 09:10:02;;;;;;;1.67;1.58;;;;;;;;;;5049087;28;20756;-83
2023/01/05 09:12:28;;;;;;;1.70;1.60;;;;;;;;;;5033272;28;20378;-84
2023/01/05 09:14:54;;;;;;;1.60;1.50;;;;;;;;;;5051204;28;20854;-83
2023/01/05 09:17:22;;;;;;;1.58;1.48;;;;;;;;;;5051252;28;20392;-82
2023/01/05 09:19:48;;;;;;;1.52;1.40;;;;;;;;;;5050951;28;20389;-83
2023/01/05 09:22:14;;;;;;;2.08;1.65;;;;;;;;;;5049925;28;20385;-83
2023/01/05 09:24:40;;;;;;;1.83;1.60;;;;;;;;;;5049302;28;20381;-84
2023/01/05 09:27:06;;;;;;;1.58;1.40;;;;;;;;;;5050522;28;20381;-82
2023/01/05 09:29:32;;;;;;;1.60;1.50;;;;;;;;;;5048577;28;20439;-85
2023/01/05 09:31:58;;;;;;;1.58;1.23;;;;;;;;;;5046720;28;20386;-86
2023/01/05 09:34:24;;;;;;;1.53;1.40;;;;;;;;;;5049759;28;20372;-84
2023/01/05 09:36:50;;;;;;;1.50;1.40;;;;;;;;;;5049968;28;20416;-84
2023/01/05 09:39:16;;;;;;;1.50;1.40;;;;;;;;;;5050916;28;20405;-85
2023/01/05 09:41:48;;;;;;;2.22;1.38;;;;;;;;;;5049908;28;20423;-85
2023/01/05 09:44:29;;;;;;;1.40;1.27;;;;;;;;;;5054427;28;20920;-85
2023/01/05 09:46:57;;;;;;;1.92;1.83;;;;;;;;;;5054063;28;20385;-86
2023/01/05 09:49:24;;;;;;;3.35;3.08;;;;;;;;;;5054202;28;20432;-84
2023/01/05 09:51:54;;;;;;;1.80;1.70;;;;;;;;;;5054378;28;20409;-83
2023/01/05 09:54:22;;;;;;;2.00;1.90;;;;;;;;;;5051373;28;20377;-85
2023/01/05 09:56:48;;;;;;;2.10;1.90;;;;;;;;;;5035905;28;20862;-85
2023/01/05 09:59:14;;;;;;;1.50;1.40;;;;;;;;;;5054064;28;20385;-87
2023/01/05 10:01:41;;;;;;;1.60;1.50;;;;;;;;;;5053738;28;20789;-85
2023/01/05 10:04:21;;;;;;;0.80;0.80;;;;;;;;;;5053136;28;20389;-84
2023/01/05 10:06:53;;;;;;;1.20;1.10;;;;;;;;;;5053695;28;20948;-86
2023/01/05 10:09:21;;;;;;;1.88;1.58;;;;;;;;;;5062583;28;20415;-84
2023/01/05 10:14:39;;;;;;;1.52;1.20;;;;;;;;;;5051540;28;20401;-84
2023/01/05 10:17:24;;;;;;;1.38;1.25;;;;;;;;;;5053293;28;20875;-82
2023/01/05 10:19:50;;;;;;;0.52;0.52;;;;;;;;;;5053717;28;20373;-82
2023/01/05 10:22:22;;;;;;;1.38;0.60;;;;;;;;;;5049208;28;20392;-83
2023/01/05 10:24:48;;;;;;;0.63;0.50;;;;;;;;;;5048280;28;20388;-82
2023/01/05 10:27:17;;;;;;;0.75;0.70;;;;;;;;;;5053241;28;20393;-83
2023/01/05 10:29:45;;;;;;;0.60;0.60;;;;;;;;;;5053311;28;20445;-83
2023/01/05 10:32:17;;;;;;;1.13;0.70;;;;;;;;;;5034263;28;20739;-85
2023/01/05 10:34:43;;;;;;;1.25;0.55;;;;;;;;;;5045976;28;20789;-86
2023/01/05 10:37:20;;;;;;;0.80;0.57;;;;;;;;;;5035587;28;20948;-83
2023/01/05 10:39:46;;;;;;;1.40;0.50;;;;;;;;;;5052291;28;20436;-82
2023/01/05 10:42:22;;;;;;;0.60;0.55;;;;;;;;;;5051602;28;20893;-83
2023/01/05 10:45:02;;;;;;;1.48;0.60;;;;;;;;;;5052746;28;20870;-82
2023/01/05 10:47:29;;;;;;;1.00;0.60;;;;;;;;;;5053159;28;20382;-84
2023/01/05 10:49:55;;;;;;;0.40;0.40;;;;;;;;;;5048144;28;20409;-83
2023/01/05 10:52:22;;;;;;;0.40;0.40;;;;;;;;;;5052790;28;20382;-83
2023/01/05 10:54:48;;;;;;;0.60;0.30;;;;;;;;;;5053139;28;20456;-83
2023/01/05 10:57:30;;;;;;;0.65;0.50;;;;;;;;;;5052676;28;20405;-84
2023/01/05 10:59:56;;;;;;;1.20;0.60;;;;;;;;;;5052286;28;20385;-83
2023/01/05 11:02:23;;;;;;;1.10;0.80;;;;;;;;;;5052256;28;20401;-83
2023/01/05 11:04:50;;;;;;;1.42;0.65;;;;;;;;;;5032200;28;20452;-83
2023/01/05 11:07:16;;;;;;;1.67;0.90;;;;;;;;;;5046066;28;20439;-83
2023/01/05 11:09:43;;;;;;;1.13;0.88;;;;;;;;;;5048824;28;21180;-83
2023/01/05 11:12:17;;;;;;;1.27;1.15;;;;;;;;;;5052143;28;20399;-85
2023/01/05 11:14:47;;;;;;;2.15;1.10;;;;;;;;;;5034710;28;20934;-84
2023/01/05 11:17:18;;;;;;;1.30;0.83;;;;;;;;;;5052806;28;20419;-83
2023/01/05 11:19:45;;;;;;;1.05;0.68;;;;;;;;;;5052155;28;20408;-84
2023/01/05 11:22:30;;;;;;;1.50;0.80;;;;;;;;;;5052437;28;20381;-84
2023/01/05 11:25:19;;;;;;;0.50;0.43;;;;;;;;;;5050436;28;20712;-83
2023/01/05 11:27:45;;;;;;;1.87;1.63;;;;;;;;;;5052606;28;20476;-84
2023/01/05 11:30:14;;;;;;;1.33;1.05;;;;;;;;;;5052326;28;20492;-83
2023/01/05 11:32:43;;;;;;;1.40;0.80;;;;;;;;;;5033660;28;20381;-83
2023/01/05 11:35:30;;;;;;;1.73;1.00;;;;;;;;;;5050928;28;20382;-83
2023/01/05 11:37:56;;;;;;;1.10;0.50;;;;;;;;;;5046903;28;20381;-83
2023/01/05 11:40:24;;;;;;;1.20;0.57;;;;;;;;;;5051765;28;20382;-83
2023/01/05 11:42:50;;;;;;;1.52;0.60;;;;;;;;;;5052232;28;20381;-83
2023/01/05 11:45:24;;;;;;;0.50;0.45;;;;;;;;;;5050977;28;20971;-83
2023/01/05 11:47:53;;;;;;;1.08;0.50;;;;;;;;;;5048463;28;20444;-82
2023/01/05 11:50:21;;;;;;;0.82;0.50;;;;;;;;;;5042398;28;20415;-84
2023/01/05 11:52:51;;;;;;;1.10;0.70;;;;;;;;;;5022974;28;20385;-83
2023/01/05 11:55:22;;;;;;;1.35;0.70;;;;;;;;;;5047623;28;20462;-82
2023/01/05 11:57:49;;;;;;;1.38;0.50;;;;;;;;;;5050881;28;20378;-83
2023/01/05 12:00:23;;;;;;;2.20;0.60;;;;;;;;;;5031710;28;21003;-84
2023/01/05 12:03:02;;;;;;;1.42;0.50;;;;;;;;;;5047108;28;20415;-83
2023/01/05 12:05:35;;;;;;;1.37;0.53;;;;;;;;;;5048354;28;20447;-83
2023/01/05 12:08:06;;;;;;;1.27;0.50;;;;;;;;;;5051601;28;20451;-83
2023/01/05 12:10:41;;;;;;;0.68;0.40;;;;;;;;;;5050558;28;20520;-83
2023/01/05 12:13:25;;;;;;;0.80;0.50;;;;;;;;;;5049600;28;20370;-84
2023/01/05 12:15:58;;;;;;;1.03;0.40;;;;;;;;;;5050141;28;20427;-83
2023/01/05 12:18:34;;;;;;;1.13;0.55;;;;;;;;;;5050017;28;20386;-84
2023/01/05 12:21:00;;;;;;;1.65;0.50;;;;;;;;;;5051396;28;20378;-84
2023/01/05 12:23:35;;;;;;;1.08;0.50;;;;;;;;;;5042247;28;20393;-84
2023/01/05 12:26:21;;;;;;;0.85;0.57;;;;;;;;;;5044956;28;20397;-84
2023/01/05 12:29:06;;;;;;;0.95;0.50;;;;;;;;;;4992452;28;20378;-85
2023/01/05 12:31:58;;;;;;;1.40;0.70;;;;;;;;;;5050441;28;20450;-84
2023/01/05 12:34:36;;;;;;;1.08;0.40;;;;;;;;;;5046195;28;20393;-85
2023/01/05 12:37:14;;;;;;;0.73;0.70;;;;;;;;;;5048276;28;20389;-84
2023/01/05 12:39:50;;;;;;;0.90;0.50;;;;;;;;;;5049480;28;20382;-84
2023/01/05 12:42:34;;;;;;;2.00;0.50;;;;;;;;;;5031125;28;20852;-84
2023/01/05 12:45:38;;;;;;;1.50;0.55;;;;;;;;;;5048574;28;20430;-85
2023/01/05 12:48:10;;;;;;;1.55;0.40;;;;;;;;;;4958189;28;20534;-84
2023/01/05 12:50:42;;;;;;;0.45;0.30;;;;;;;;;;4956581;28;20407;-84
2023/01/05 12:53:14;;;;;;;0.98;0.50;;;;;;;;;;5006268;28;20435;-84
2023/01/05 12:55:46;;;;;;;2.20;1.02;;;;;;;;;;5022182;28;20876;-82
2023/01/05 12:58:14;;;;;;;0.77;0.50;;;;;;;;;;5049487;28;20446;-86
2023/01/05 13:00:44;;;;;;;0.63;0.40;;;;;;;;;;5042958;28;20906;-84
2023/01/05 13:03:14;;;;;;;0.40;0.30;;;;;;;;;;5049638;28;20384;-84
2023/01/05 13:05:40;;;;;;;1.40;0.50;;;;;;;;;;5042249;28;20417;-85
2023/01/05 13:08:21;;;;;;;2.00;0.60;;;;;;;;;;5045314;28;20416;-85
2023/01/05 13:11:03;;;;;;;0.60;0.40;;;;;;;;;;5039541;28;20407;-83
2023/01/05 13:13:32;;;;;;;0.85;0.60;;;;;;;;;;5037266;28;20436;-84
2023/01/05 13:16:02;;;;;;;1.70;0.70;;;;;;;;;;5049316;28;20386;-84
2023/01/05 13:18:29;;;;;;;0.50;0.50;;;;;;;;;;5032036;28;20932;-85
2023/01/05 13:21:02;;;;;;;0.65;0.45;;;;;;;;;;5041470;28;20477;-84
2023/01/05 13:23:41;;;;;;;1.25;0.70;;;;;;;;;;5051955;28;20452;-83
2023/01/05 13:26:10;;;;;;;0.70;0.70;;;;;;;;;;5052306;28;20472;-83
2023/01/05 13:28:36;;;;;;;1.53;0.93;;;;;;;;;;5054449;28;20389;-83
2023/01/05 13:31:05;;;;;;;1.05;0.60;;;;;;;;;;5046695;28;20423;-82
2023/01/05 13:33:44;;;;;;;2.65;0.93;;;;;;;;;;5051108;28;20385;-83
2023/01/05 13:36:20;;;;;;;2.53;1.30;;;;;;;;;;5052918;28;20499;-84
2023/01/05 13:38:59;;;;;;;1.90;0.80;;;;;;;;;;5053458;28;20381;-84
2023/01/05 13:41:31;;;;;;;1.90;0.80;;;;;;;;;;5036795;28;20385;-84
2023/01/05 13:44:16;;;;;;;1.60;0.70;;;;;;;;;;5054416;28;20381;-85
2023/01/05 13:46:42;;;;;;;0.87;0.60;;;;;;;;;;5048414;28;20444;-85
2023/01/05 13:49:19;;;;;;;0.95;0.50;;;;;;;;;;5049339;28;20871;-84
2023/01/05 13:51:46;;;;;;;1.17;0.60;;;;;;;;;;5054507;28;20378;-84
2023/01/05 13:54:17;;;;;;;0.47;0.40;;;;;;;;;;5054373;28;20373;-84
2023/01/05 13:56:45;;;;;;;1.10;0.50;;;;;;;;;;5054448;28;20502;-84
2023/01/05 13:59:25;;;;;;;0.65;0.47;;;;;;;;;;5054033;28;20881;-84
2023/01/05 14:01:52;;;;;;;0.60;0.50;;;;;;;;;;5052162;28;20402;-84
2023/01/05 14:04:18;;;;;;;1.20;0.45;;;;;;;;;;5054227;28;20417;-84
2023/01/05 14:06:46;;;;;;;0.43;0.43;;;;;;;;;;5054147;28;20421;-84
2023/01/05 14:09:17;;;;;;;0.90;0.40;;;;;;;;;;5054232;28;20459;-84
2023/01/05 14:12:01;;;;;;;1.13;0.50;;;;;;;;;;5054061;28;20391;-84
2023/01/05 14:14:28;;;;;;;0.70;0.50;;;;;;;;;;5036199;28;20799;-85
2023/01/05 14:16:54;;;;;;;1.00;0.93;;;;;;;;;;5055194;28;20409;-84
2023/01/05 14:19:21;;;;;;;1.25;1.15;;;;;;;;;;5052311;28;20377;-84
2023/01/05 14:21:52;;;;;;;0.75;0.70;;;;;;;;;;5051773;28;20381;-85
2023/01/05 14:24:30;;;;;;;0.70;0.60;;;;;;;;;;5053848;28;20384;-84
2023/01/05 14:27:13;;;;;;;0.63;0.50;;;;;;;;;;5053598;28;20420;-85
2023/01/05 14:29:45;;;;;;;0.70;0.60;;;;;;;;;;5053681;28;20906;-84
2023/01/05 14:32:17;;;;;;;1.70;0.70;;;;;;;;;;5053679;28;20373;-85
2023/01/05 14:34:48;;;;;;;0.93;0.63;;;;;;;;;;5046091;28;20366;-84
2023/01/05 14:37:21;;;;;;;0.50;0.50;;;;;;;;;;5053614;28;20377;-84
2023/01/05 14:39:47;;;;;;;0.98;0.68;;;;;;;;;;5053503;28;20393;-84
2023/01/05 14:42:13;;;;;;;1.80;0.60;;;;;;;;;;5053407;28;20412;-84
2023/01/05 14:44:48;;;;;;;2.30;0.82;;;;;;;;;;5053542;28;20456;-85
2023/01/05 14:47:15;;;;;;;1.20;1.10;;;;;;;;;;5053373;28;20377;-84
2023/01/05 14:50:02;;;;;;;0.70;0.70;;;;;;;;;;5053182;28;20404;-84
2023/01/05 14:52:46;;;;;;;1.30;1.00;;;;;;;;;;5053178;28;20867;-85
2023/01/05 14:55:23;;;;;;;0.70;0.70;;;;;;;;;;5053064;28;20385;-84
2023/01/05 14:57:53;;;;;;;1.27;0.80;;;;;;;;;;5053143;28;20381;-84
2023/01/05 15:00:29;;;;;;;1.02;0.63;;;;;;;;;;5051715;28;20425;-83
2023/01/05 15:03:00;;;;;;;1.00;0.85;;;;;;;;;;5033512;28;20522;-83
2023/01/05 15:05:27;;;;;;;1.30;1.00;;;;;;;;;;5050986;28;20551;-83
2023/01/05 15:07:59;;;;;;;1.05;0.90;;;;;;;;;;5046700;28;20454;-83
2023/01/05 15:10:38;;;;;;;0.75;0.63;;;;;;;;;;5041986;28;20495;-85
2023/01/05 15:13:16;;;;;;;0.85;0.82;;;;;;;;;;5059222;28;20917;-85
2023/01/05 15:15:45;;;;;;;1.10;1.00;;;;;;;;;;5050483;28;20412;-84
2023/01/05 15:18:32;;;;;;;1.42;1.33;;;;;;;;;;5050332;28;20400;-85
2023/01/05 15:21:05;;;;;;;0.80;0.80;;;;;;;;;;5051866;28;20476;-84
2023/01/05 15:23:56;;;;;;;1.60;1.02;;;;;;;;;;5050839;28;20895;-85
2023/01/05 15:26:28;;;;;;;1.42;1.20;;;;;;;;;;5034671;28;20382;-86
2023/01/05 15:29:13;;;;;;;2.15;1.95;;;;;;;;;;5042579;28;20385;-85
2023/01/05 15:31:41;;;;;;;1.60;1.50;;;;;;;;;;5034529;28;20401;-85
2023/01/05 15:34:23;;;;;;;1.50;1.40;;;;;;;;;;5052378;28;20435;-85